sensor_id;sensor_type;location;lat;lon;timestamp;temperature;humidity
20866;DHT22;10593;48.398;10.698;2023-08-07T00:00:55;16.90;53.40
20866;DHT22;10593;48.398;10.698;2023-08-07T00:03:21;16.90;53.50
20866;DHT22;10593;48.398;10.698;2023-08-07T00:05:50;16.90;53.70
20866;DHT22;10593;48.398;10.698;2023-08-07T00:08:20;16.90;53.70
20866;DHT22;10593;48.398;10.698;2023-08-07T00:10:46;16.80;53.60
20866;DHT22;10593;48.398;10.698;2023-08-07T00:13:13;16.80;53.50
20866;DHT22;10593;48.398;10.698;2023-08-07T00:15:39;16.80;53.60
20866;DHT22;10593;48.398;10.698;2023-08-07T00:18:05;16.80;53.60
20866;DHT22;10593;48.398;10.698;2023-08-07T00:20:30;16.70;53.50
20866;DHT22;10593;48.398;10.698;2023-08-07T00:22:56;16.70;53.50
20866;DHT22;10593;48.398;10.698;2023-08-07T00:25:22;16.70;53.60
20866;DHT22;10593;48.398;10.698;2023-08-07T00:27:47;16.70;53.80
20866;DHT22;10593;48.398;10.698;2023-08-07T00:30:13;16.70;54.00
20866;DHT22;10593;48.398;10.698;2023-08-07T00:32:39;16.70;54.10
20866;DHT22;10593;48.398;10.698;2023-08-07T00:35:05;16.60;54.20
20866;DHT22;10593;48.398;10.698;2023-08-07T00:37:33;16.60;54.40
20866;DHT22;10593;48.398;10.698;2023-08-07T00:39:59;16.60;54.10
20866;DHT22;10593;48.398;10.698;2023-08-07T00:42:26;16.60;54.20
20866;DHT22;10593;48.398;10.698;2023-08-07T00:44:51;16.60;54.30
20866;DHT22;10593;48.398;10.698;2023-08-07T00:47:17;16.60;54.30
20866;DHT22;10593;48.398;10.698;2023-08-07T00:49:43;16.60;54.60
20866;DHT22;10593;48.398;10.698;2023-08-07T00:52:10;16.60;54.50
20866;DHT22;10593;48.398;10.698;2023-08-07T00:54:36;16.50;54.50
20866;DHT22;10593;48.398;10.698;2023-08-07T00:57:11;16.50;54.50
20866;DHT22;10593;48.398;10.698;2023-08-07T00:59:42;16.50;54.40
20866;DHT22;10593;48.398;10.698;2023-08-07T01:02:09;16.50;54.40
20866;DHT22;10593;48.398;10.698;2023-08-07T01:04:38;16.50;54.40
20866;DHT22;10593;48.398;10.698;2023-08-07T01:07:04;16.50;54.40
20866;DHT22;10593;48.398;10.698;2023-08-07T01:09:30;16.50;54.40
20866;DHT22;10593;48.398;10.698;2023-08-07T01:12:16;16.50;54.20
20866;DHT22;10593;48.398;10.698;2023-08-07T01:14:52;16.50;54.40
20866;DHT22;10593;48.398;10.698;2023-08-07T01:17:25;16.40;54.10
20866;DHT22;10593;48.398;10.698;2023-08-07T01:19:52;16.40;54.10
20866;DHT22;10593;48.398;10.698;2023-08-07T01:22:19;16.40;54.00
20866;DHT22;10593;48.398;10.698;2023-08-07T01:24:50;16.40;54.00
20866;DHT22;10593;48.398;10.698;2023-08-07T01:28:06;16.40;54.10
20866;DHT22;10593;48.398;10.698;2023-08-07T01:30:35;16.40;54.20
20866;DHT22;10593;48.398;10.698;2023-08-07T01:33:17;16.40;54.00
20866;DHT22;10593;48.398;10.698;2023-08-07T01:35:53;16.40;53.90
20866;DHT22;10593;48.398;10.698;2023-08-07T01:38:22;16.40;53.70
20866;DHT22;10593;48.398;10.698;2023-08-07T01:40:51;16.40;53.80
20866;DHT22;10593;48.398;10.698;2023-08-07T01:43:18;16.30;53.80
20866;DHT22;10593;48.398;10.698;2023-08-07T01:45:45;16.30;53.70
20866;DHT22;10593;48.398;10.698;2023-08-07T01:48:11;16.30;53.70
20866;DHT22;10593;48.398;10.698;2023-08-07T01:50:38;16.30;53.60
20866;DHT22;10593;48.398;10.698;2023-08-07T01:53:04;16.30;53.60
20866;DHT22;10593;48.398;10.698;2023-08-07T01:55:31;16.30;53.50
20866;DHT22;10593;48.398;10.698;2023-08-07T01:57:57;16.30;53.30
20866;DHT22;10593;48.398;10.698;2023-08-07T02:00:23;16.30;53.30
20866;DHT22;10593;48.398;10.698;2023-08-07T02:02:48;16.30;53.40
20866;DHT22;10593;48.398;10.698;2023-08-07T02:05:15;16.30;53.30
20866;DHT22;10593;48.398;10.698;2023-08-07T02:07:41;16.20;53.10
20866;DHT22;10593;48.398;10.698;2023-08-07T02:10:07;16.20;53.10
20866;DHT22;10593;48.398;10.698;2023-08-07T02:12:33;16.20;53.10
20866;DHT22;10593;48.398;10.698;2023-08-07T02:15:00;16.20;53.10
20866;DHT22;10593;48.398;10.698;2023-08-07T02:17:27;16.20;53.10
20866;DHT22;10593;48.398;10.698;2023-08-07T02:19:55;16.20;53.10
20866;DHT22;10593;48.398;10.698;2023-08-07T02:22:21;16.20;53.00
20866;DHT22;10593;48.398;10.698;2023-08-07T02:24:47;16.20;53.10
20866;DHT22;10593;48.398;10.698;2023-08-07T02:27:13;16.10;53.00
20866;DHT22;10593;48.398;10.698;2023-08-07T02:29:40;16.10;53.00
20866;DHT22;10593;48.398;10.698;2023-08-07T02:32:06;16.10;53.00
20866;DHT22;10593;48.398;10.698;2023-08-07T02:34:32;16.20;53.10
20866;DHT22;10593;48.398;10.698;2023-08-07T02:36:59;16.10;53.00
20866;DHT22;10593;48.398;10.698;2023-08-07T02:39:25;16.10;52.90
20866;DHT22;10593;48.398;10.698;2023-08-07T02:41:51;16.10;52.90
20866;DHT22;10593;48.398;10.698;2023-08-07T02:44:17;16.10;52.90
20866;DHT22;10593;48.398;10.698;2023-08-07T02:46:43;16.10;52.90
20866;DHT22;10593;48.398;10.698;2023-08-07T02:49:09;16.10;53.00
20866;DHT22;10593;48.398;10.698;2023-08-07T02:51:34;16.10;52.90
20866;DHT22;10593;48.398;10.698;2023-08-07T02:54:00;16.10;52.90
20866;DHT22;10593;48.398;10.698;2023-08-07T02:56:26;16.10;53.20
20866;DHT22;10593;48.398;10.698;2023-08-07T02:58:52;16.10;52.90
20866;DHT22;10593;48.398;10.698;2023-08-07T03:01:19;16.10;53.00
20866;DHT22;10593;48.398;10.698;2023-08-07T03:03:45;16.00;52.90
20866;DHT22;10593;48.398;10.698;2023-08-07T03:06:10;16.10;53.00
20866;DHT22;10593;48.398;10.698;2023-08-07T03:08:36;16.00;52.90
20866;DHT22;10593;48.398;10.698;2023-08-07T03:11:02;16.00;52.90
20866;DHT22;10593;48.398;10.698;2023-08-07T03:13:28;16.00;52.90
20866;DHT22;10593;48.398;10.698;2023-08-07T03:16:04;16.00;52.90
20866;DHT22;10593;48.398;10.698;2023-08-07T03:18:31;16.00;52.90
20866;DHT22;10593;48.398;10.698;2023-08-07T03:20:58;16.00;52.90
20866;DHT22;10593;48.398;10.698;2023-08-07T03:23:25;16.00;52.90
20866;DHT22;10593;48.398;10.698;2023-08-07T03:26:04;16.00;52.90
20866;DHT22;10593;48.398;10.698;2023-08-07T03:28:32;16.00;53.50
20866;DHT22;10593;48.398;10.698;2023-08-07T03:30:58;16.00;52.90
20866;DHT22;10593;48.398;10.698;2023-08-07T03:33:24;15.90;52.80
20866;DHT22;10593;48.398;10.698;2023-08-07T03:35:50;16.00;52.80
20866;DHT22;10593;48.398;10.698;2023-08-07T03:38:15;15.90;52.50
20866;DHT22;10593;48.398;10.698;2023-08-07T03:40:41;15.90;52.60
20866;DHT22;10593;48.398;10.698;2023-08-07T03:43:08;15.90;52.50
20866;DHT22;10593;48.398;10.698;2023-08-07T03:45:34;15.90;52.40
20866;DHT22;10593;48.398;10.698;2023-08-07T03:48:00;15.90;52.80
20866;DHT22;10593;48.398;10.698;2023-08-07T03:50:26;15.90;52.30
20866;DHT22;10593;48.398;10.698;2023-08-07T03:52:52;15.90;52.10
20866;DHT22;10593;48.398;10.698;2023-08-07T03:55:17;15.90;52.20
20866;DHT22;10593;48.398;10.698;2023-08-07T03:57:43;15.90;52.00
20866;DHT22;10593;48.398;10.698;2023-08-07T04:00:11;15.90;52.00
20866;DHT22;10593;48.398;10.698;2023-08-07T04:02:37;15.90;52.00
20866;DHT22;10593;48.398;10.698;2023-08-07T04:05:03;15.90;52.00
20866;DHT22;10593;48.398;10.698;2023-08-07T04:07:31;15.90;52.00
20866;DHT22;10593;48.398;10.698;2023-08-07T04:09:56;15.80;52.00
20866;DHT22;10593;48.398;10.698;2023-08-07T04:12:22;15.80;51.90
20866;DHT22;10593;48.398;10.698;2023-08-07T04:14:48;15.90;52.00
20866;DHT22;10593;48.398;10.698;2023-08-07T04:17:13;15.90;52.00
20866;DHT22;10593;48.398;10.698;2023-08-07T04:19:39;15.90;52.00
20866;DHT22;10593;48.398;10.698;2023-08-07T04:22:05;15.90;52.00
20866;DHT22;10593;48.398;10.698;2023-08-07T04:24:30;15.80;51.90
20866;DHT22;10593;48.398;10.698;2023-08-07T04:26:56;15.80;52.00
20866;DHT22;10593;48.398;10.698;2023-08-07T04:29:22;15.80;51.80
20866;DHT22;10593;48.398;10.698;2023-08-07T04:31:47;15.80;51.70
20866;DHT22;10593;48.398;10.698;2023-08-07T04:34:13;15.80;51.80
20866;DHT22;10593;48.398;10.698;2023-08-07T04:36:39;15.80;51.70
20866;DHT22;10593;48.398;10.698;2023-08-07T04:39:05;15.80;51.70
20866;DHT22;10593;48.398;10.698;2023-08-07T04:41:30;15.80;51.70
20866;DHT22;10593;48.398;10.698;2023-08-07T04:43:56;15.80;51.70
20866;DHT22;10593;48.398;10.698;2023-08-07T04:46:22;15.80;51.60
20866;DHT22;10593;48.398;10.698;2023-08-07T04:48:47;15.80;52.20
20866;DHT22;10593;48.398;10.698;2023-08-07T04:51:13;15.80;51.60
20866;DHT22;10593;48.398;10.698;2023-08-07T04:53:40;15.80;51.60
20866;DHT22;10593;48.398;10.698;2023-08-07T04:56:06;15.80;51.50
20866;DHT22;10593;48.398;10.698;2023-08-07T04:58:32;15.80;51.50
20866;DHT22;10593;48.398;10.698;2023-08-07T05:00:58;15.80;51.40
20866;DHT22;10593;48.398;10.698;2023-08-07T05:03:25;15.80;51.40
20866;DHT22;10593;48.398;10.698;2023-08-07T05:05:59;15.80;51.30
20866;DHT22;10593;48.398;10.698;2023-08-07T05:08:26;15.80;51.30
20866;DHT22;10593;48.398;10.698;2023-08-07T05:10:52;15.80;51.40
20866;DHT22;10593;48.398;10.698;2023-08-07T05:13:18;15.80;51.20
20866;DHT22;10593;48.398;10.698;2023-08-07T05:15:46;15.70;51.20
20866;DHT22;10593;48.398;10.698;2023-08-07T05:18:13;15.80;51.30
20866;DHT22;10593;48.398;10.698;2023-08-07T05:20:39;15.80;51.20
20866;DHT22;10593;48.398;10.698;2023-08-07T05:23:04;15.80;51.10
20866;DHT22;10593;48.398;10.698;2023-08-07T05:25:30;15.80;51.20
20866;DHT22;10593;48.398;10.698;2023-08-07T05:27:56;15.80;51.30
20866;DHT22;10593;48.398;10.698;2023-08-07T05:30:25;15.80;51.40
20866;DHT22;10593;48.398;10.698;2023-08-07T05:32:51;15.80;51.40
20866;DHT22;10593;48.398;10.698;2023-08-07T05:35:17;15.80;51.50
20866;DHT22;10593;48.398;10.698;2023-08-07T05:37:42;15.80;51.40
20866;DHT22;10593;48.398;10.698;2023-08-07T05:40:08;15.80;51.40
20866;DHT22;10593;48.398;10.698;2023-08-07T05:42:37;15.90;51.30
20866;DHT22;10593;48.398;10.698;2023-08-07T05:45:03;15.90;51.20
20866;DHT22;10593;48.398;10.698;2023-08-07T05:47:29;15.90;51.20
20866;DHT22;10593;48.398;10.698;2023-08-07T05:49:55;15.90;51.20
20866;DHT22;10593;48.398;10.698;2023-08-07T05:52:21;15.90;51.10
20866;DHT22;10593;48.398;10.698;2023-08-07T05:54:47;16.00;51.20
20866;DHT22;10593;48.398;10.698;2023-08-07T05:57:13;16.00;51.20
20866;DHT22;10593;48.398;10.698;2023-08-07T05:59:39;16.00;51.20
20866;DHT22;10593;48.398;10.698;2023-08-07T06:02:06;16.00;51.20
20866;DHT22;10593;48.398;10.698;2023-08-07T06:04:32;16.10;51.30
20866;DHT22;10593;48.398;10.698;2023-08-07T06:06:58;16.10;51.30
20866;DHT22;10593;48.398;10.698;2023-08-07T06:09:24;16.10;51.10
20866;DHT22;10593;48.398;10.698;2023-08-07T06:11:50;16.20;51.10
20866;DHT22;10593;48.398;10.698;2023-08-07T06:14:15;16.20;50.80
20866;DHT22;10593;48.398;10.698;2023-08-07T06:16:42;16.20;50.70
20866;DHT22;10593;48.398;10.698;2023-08-07T06:19:08;16.20;50.70
20866;DHT22;10593;48.398;10.698;2023-08-07T06:21:35;16.20;50.70
20866;DHT22;10593;48.398;10.698;2023-08-07T06:24:01;16.30;50.80
20866;DHT22;10593;48.398;10.698;2023-08-07T06:26:28;16.30;50.80
20866;DHT22;10593;48.398;10.698;2023-08-07T06:28:54;16.40;50.80
20866;DHT22;10593;48.398;10.698;2023-08-07T06:31:19;16.30;50.60
20866;DHT22;10593;48.398;10.698;2023-08-07T06:33:45;16.40;50.60
20866;DHT22;10593;48.398;10.698;2023-08-07T06:36:11;16.40;50.50
20866;DHT22;10593;48.398;10.698;2023-08-07T06:38:37;16.40;50.40
20866;DHT22;10593;48.398;10.698;2023-08-07T06:41:03;16.40;50.30
20866;DHT22;10593;48.398;10.698;2023-08-07T06:43:29;16.50;50.40
20866;DHT22;10593;48.398;10.698;2023-08-07T06:45:56;16.50;50.20
20866;DHT22;10593;48.398;10.698;2023-08-07T06:48:23;16.50;50.40
20866;DHT22;10593;48.398;10.698;2023-08-07T06:50:50;16.50;50.60
20866;DHT22;10593;48.398;10.698;2023-08-07T06:53:17;16.50;50.40
20866;DHT22;10593;48.398;10.698;2023-08-07T06:55:43;16.60;50.40
20866;DHT22;10593;48.398;10.698;2023-08-07T06:58:09;16.60;50.30
20866;DHT22;10593;48.398;10.698;2023-08-07T07:00:36;16.60;50.10
20866;DHT22;10593;48.398;10.698;2023-08-07T07:03:03;16.70;50.10
20866;DHT22;10593;48.398;10.698;2023-08-07T07:05:30;16.70;50.10
20866;DHT22;10593;48.398;10.698;2023-08-07T07:07:57;16.70;50.00
20866;DHT22;10593;48.398;10.698;2023-08-07T07:10:23;16.80;49.80
20866;DHT22;10593;48.398;10.698;2023-08-07T07:12:50;16.80;49.60
20866;DHT22;10593;48.398;10.698;2023-08-07T07:15:17;16.80;49.50
20866;DHT22;10593;48.398;10.698;2023-08-07T07:17:43;16.90;49.60
20866;DHT22;10593;48.398;10.698;2023-08-07T07:20:09;16.90;49.70
20866;DHT22;10593;48.398;10.698;2023-08-07T07:22:35;16.90;49.60
20866;DHT22;10593;48.398;10.698;2023-08-07T07:25:01;16.90;49.40
20866;DHT22;10593;48.398;10.698;2023-08-07T07:27:27;16.90;49.20
20866;DHT22;10593;48.398;10.698;2023-08-07T07:29:53;17.00;49.20
20866;DHT22;10593;48.398;10.698;2023-08-07T07:32:20;17.00;49.40
20866;DHT22;10593;48.398;10.698;2023-08-07T07:34:46;17.00;49.40
20866;DHT22;10593;48.398;10.698;2023-08-07T07:37:12;17.10;49.30
20866;DHT22;10593;48.398;10.698;2023-08-07T07:39:39;17.10;49.30
20866;DHT22;10593;48.398;10.698;2023-08-07T07:42:06;17.10;49.30
20866;DHT22;10593;48.398;10.698;2023-08-07T07:44:33;17.10;49.30
20866;DHT22;10593;48.398;10.698;2023-08-07T07:47:01;17.20;49.40
20866;DHT22;10593;48.398;10.698;2023-08-07T07:49:27;17.20;49.40
20866;DHT22;10593;48.398;10.698;2023-08-07T07:51:53;17.20;49.20
20866;DHT22;10593;48.398;10.698;2023-08-07T07:54:18;17.20;49.30
20866;DHT22;10593;48.398;10.698;2023-08-07T07:56:45;17.30;49.40
20866;DHT22;10593;48.398;10.698;2023-08-07T07:59:11;17.20;49.20
20866;DHT22;10593;48.398;10.698;2023-08-07T08:01:38;17.20;49.40
20866;DHT22;10593;48.398;10.698;2023-08-07T08:04:04;17.30;49.50
20866;DHT22;10593;48.398;10.698;2023-08-07T08:06:30;17.30;49.30
20866;DHT22;10593;48.398;10.698;2023-08-07T08:08:56;17.30;49.10
20866;DHT22;10593;48.398;10.698;2023-08-07T09:00:41;17.50;48.80
20866;DHT22;10593;48.398;10.698;2023-08-07T09:10:50;17.40;48.60
20866;DHT22;10593;48.398;10.698;2023-08-07T09:13:26;17.40;48.20
20866;DHT22;10593;48.398;10.698;2023-08-07T09:15:53;17.40;48.30
20866;DHT22;10593;48.398;10.698;2023-08-07T09:18:20;17.40;48.40
20866;DHT22;10593;48.398;10.698;2023-08-07T09:20:47;17.40;48.50
20866;DHT22;10593;48.398;10.698;2023-08-07T09:23:15;17.40;48.50
20866;DHT22;10593;48.398;10.698;2023-08-07T09:25:42;17.40;48.40
20866;DHT22;10593;48.398;10.698;2023-08-07T09:28:08;17.50;48.50
20866;DHT22;10593;48.398;10.698;2023-08-07T09:30:36;17.50;48.30
20866;DHT22;10593;48.398;10.698;2023-08-07T09:33:04;17.50;48.10
20866;DHT22;10593;48.398;10.698;2023-08-07T09:35:31;17.50;48.30
20866;DHT22;10593;48.398;10.698;2023-08-07T09:37:58;17.60;48.20
20866;DHT22;10593;48.398;10.698;2023-08-07T09:40:24;17.60;48.50
20866;DHT22;10593;48.398;10.698;2023-08-07T09:42:51;17.60;48.70
20866;DHT22;10593;48.398;10.698;2023-08-07T09:45:27;17.70;48.80
20866;DHT22;10593;48.398;10.698;2023-08-07T09:48:02;17.80;48.80
20866;DHT22;10593;48.398;10.698;2023-08-07T09:50:30;17.80;48.30
20866;DHT22;10593;48.398;10.698;2023-08-07T09:52:57;17.90;47.60
20866;DHT22;10593;48.398;10.698;2023-08-07T09:55:24;17.90;47.70
20866;DHT22;10593;48.398;10.698;2023-08-07T09:57:50;18.00;47.70
20866;DHT22;10593;48.398;10.698;2023-08-07T10:00:17;17.90;47.70
20866;DHT22;10593;48.398;10.698;2023-08-07T10:02:49;18.00;47.70
20866;DHT22;10593;48.398;10.698;2023-08-07T10:05:16;18.10;47.70
20866;DHT22;10593;48.398;10.698;2023-08-07T10:07:43;18.00;47.70
20866;DHT22;10593;48.398;10.698;2023-08-07T10:10:10;18.10;47.50
20866;DHT22;10593;48.398;10.698;2023-08-07T10:12:37;18.10;47.00
20866;DHT22;10593;48.398;10.698;2023-08-07T10:15:04;18.10;46.70
20866;DHT22;10593;48.398;10.698;2023-08-07T10:17:31;18.10;46.70
20866;DHT22;10593;48.398;10.698;2023-08-07T10:19:57;18.10;46.40
20866;DHT22;10593;48.398;10.698;2023-08-07T10:22:25;18.10;46.40
20866;DHT22;10593;48.398;10.698;2023-08-07T10:24:53;18.10;46.10
20866;DHT22;10593;48.398;10.698;2023-08-07T10:27:23;18.10;46.10
20866;DHT22;10593;48.398;10.698;2023-08-07T10:29:52;18.10;46.00
20866;DHT22;10593;48.398;10.698;2023-08-07T10:32:21;18.10;46.00
20866;DHT22;10593;48.398;10.698;2023-08-07T10:34:50;18.10;45.90
20866;DHT22;10593;48.398;10.698;2023-08-07T10:37:38;18.10;46.00
20866;DHT22;10593;48.398;10.698;2023-08-07T10:40:11;18.10;45.70
20866;DHT22;10593;48.398;10.698;2023-08-07T10:45:22;18.10;45.50
20866;DHT22;10593;48.398;10.698;2023-08-07T10:48:07;18.10;45.60
20866;DHT22;10593;48.398;10.698;2023-08-07T10:50:49;18.10;45.40
20866;DHT22;10593;48.398;10.698;2023-08-07T10:53:50;18.10;45.40
20866;DHT22;10593;48.398;10.698;2023-08-07T10:56:31;18.10;45.70
20866;DHT22;10593;48.398;10.698;2023-08-07T10:58:57;18.10;45.90
20866;DHT22;10593;48.398;10.698;2023-08-07T11:04:14;18.20;46.10
20866;DHT22;10593;48.398;10.698;2023-08-07T11:06:41;18.20;46.10
20866;DHT22;10593;48.398;10.698;2023-08-07T11:09:09;18.20;46.10
20866;DHT22;10593;48.398;10.698;2023-08-07T11:11:47;18.30;46.20
20866;DHT22;10593;48.398;10.698;2023-08-07T11:14:15;18.30;45.70
20866;DHT22;10593;48.398;10.698;2023-08-07T11:16:44;18.30;46.00
20866;DHT22;10593;48.398;10.698;2023-08-07T11:19:15;18.30;46.20
20866;DHT22;10593;48.398;10.698;2023-08-07T11:21:42;18.40;46.20
20866;DHT22;10593;48.398;10.698;2023-08-07T11:24:11;18.40;45.90
20866;DHT22;10593;48.398;10.698;2023-08-07T11:26:38;18.50;45.60
20866;DHT22;10593;48.398;10.698;2023-08-07T11:29:06;18.50;45.40
20866;DHT22;10593;48.398;10.698;2023-08-07T11:31:32;18.50;45.30
20866;DHT22;10593;48.398;10.698;2023-08-07T11:33:59;18.50;44.60
20866;DHT22;10593;48.398;10.698;2023-08-07T11:36:28;18.60;44.60
20866;DHT22;10593;48.398;10.698;2023-08-07T11:38:54;18.60;44.80
20866;DHT22;10593;48.398;10.698;2023-08-07T11:41:20;18.60;44.70
20866;DHT22;10593;48.398;10.698;2023-08-07T11:43:46;18.70;44.10
20866;DHT22;10593;48.398;10.698;2023-08-07T11:46:14;18.70;43.90
20866;DHT22;10593;48.398;10.698;2023-08-07T11:53:56;18.80;43.30
20866;DHT22;10593;48.398;10.698;2023-08-07T11:56:24;18.90;43.10
20866;DHT22;10593;48.398;10.698;2023-08-07T11:58:51;18.90;42.70
20866;DHT22;10593;48.398;10.698;2023-08-07T12:01:22;18.90;42.50
20866;DHT22;10593;48.398;10.698;2023-08-07T12:03:57;19.00;41.90
20866;DHT22;10593;48.398;10.698;2023-08-07T12:06:35;19.00;41.50
20866;DHT22;10593;48.398;10.698;2023-08-07T12:09:11;19.10;41.60
20866;DHT22;10593;48.398;10.698;2023-08-07T12:11:38;19.10;42.20
20866;DHT22;10593;48.398;10.698;2023-08-07T12:14:04;19.10;42.40
20866;DHT22;10593;48.398;10.698;2023-08-07T12:16:36;19.10;42.50
20866;DHT22;10593;48.398;10.698;2023-08-07T12:31:55;19.20;42.00
20866;DHT22;10593;48.398;10.698;2023-08-07T12:34:21;19.20;41.70
20866;DHT22;10593;48.398;10.698;2023-08-07T12:36:47;19.20;41.70
20866;DHT22;10593;48.398;10.698;2023-08-07T12:39:12;19.20;41.70
20866;DHT22;10593;48.398;10.698;2023-08-07T12:41:38;19.20;41.70
20866;DHT22;10593;48.398;10.698;2023-08-07T12:44:05;19.20;42.30
20866;DHT22;10593;48.398;10.698;2023-08-07T12:46:31;19.20;42.40
20866;DHT22;10593;48.398;10.698;2023-08-07T12:48:57;19.20;42.00
20866;DHT22;10593;48.398;10.698;2023-08-07T12:51:23;19.20;41.70
20866;DHT22;10593;48.398;10.698;2023-08-07T12:53:50;19.30;41.80
20866;DHT22;10593;48.398;10.698;2023-08-07T12:56:16;19.30;42.40
20866;DHT22;10593;48.398;10.698;2023-08-07T12:58:42;19.30;41.70
20866;DHT22;10593;48.398;10.698;2023-08-07T13:01:09;19.30;41.80
20866;DHT22;10593;48.398;10.698;2023-08-07T13:03:35;19.30;41.80
20866;DHT22;10593;48.398;10.698;2023-08-07T13:06:01;19.30;42.40
20866;DHT22;10593;48.398;10.698;2023-08-07T13:08:30;19.30;42.70
20866;DHT22;10593;48.398;10.698;2023-08-07T13:10:56;19.30;42.60
20866;DHT22;10593;48.398;10.698;2023-08-07T13:13:22;19.40;42.50
20866;DHT22;10593;48.398;10.698;2023-08-07T13:15:47;19.40;42.20
20866;DHT22;10593;48.398;10.698;2023-08-07T13:18:13;19.30;41.80
20866;DHT22;10593;48.398;10.698;2023-08-07T13:20:42;19.40;41.90
20866;DHT22;10593;48.398;10.698;2023-08-07T13:23:07;19.30;41.70
20866;DHT22;10593;48.398;10.698;2023-08-07T13:25:33;19.30;41.40
20866;DHT22;10593;48.398;10.698;2023-08-07T13:27:58;19.30;41.70
20866;DHT22;10593;48.398;10.698;2023-08-07T13:30:26;19.40;41.80
20866;DHT22;10593;48.398;10.698;2023-08-07T13:32:52;19.30;41.80
20866;DHT22;10593;48.398;10.698;2023-08-07T13:35:18;19.30;41.80
20866;DHT22;10593;48.398;10.698;2023-08-07T13:37:43;19.30;41.70
20866;DHT22;10593;48.398;10.698;2023-08-07T13:40:09;19.30;41.80
20866;DHT22;10593;48.398;10.698;2023-08-07T13:42:36;19.20;41.70
20866;DHT22;10593;48.398;10.698;2023-08-07T13:45:07;19.30;42.00
20866;DHT22;10593;48.398;10.698;2023-08-07T13:47:35;19.30;42.10
20866;DHT22;10593;48.398;10.698;2023-08-07T13:50:01;19.30;42.00
20866;DHT22;10593;48.398;10.698;2023-08-07T13:52:28;19.30;42.10
20866;DHT22;10593;48.398;10.698;2023-08-07T13:54:53;19.30;42.30
20866;DHT22;10593;48.398;10.698;2023-08-07T14:12:45;19.30;42.90
20866;DHT22;10593;48.398;10.698;2023-08-07T14:15:12;19.40;42.80
20866;DHT22;10593;48.398;10.698;2023-08-07T14:17:38;19.40;42.40
20866;DHT22;10593;48.398;10.698;2023-08-07T14:20:04;19.40;42.50
20866;DHT22;10593;48.398;10.698;2023-08-07T14:22:30;19.40;42.60
20866;DHT22;10593;48.398;10.698;2023-08-07T14:24:57;19.40;42.60
20866;DHT22;10593;48.398;10.698;2023-08-07T14:27:22;19.40;42.60
20866;DHT22;10593;48.398;10.698;2023-08-07T14:29:48;19.40;42.60
20866;DHT22;10593;48.398;10.698;2023-08-07T14:32:14;19.40;42.60
20866;DHT22;10593;48.398;10.698;2023-08-07T14:34:39;19.40;42.50
20866;DHT22;10593;48.398;10.698;2023-08-07T14:37:05;19.40;42.50
20866;DHT22;10593;48.398;10.698;2023-08-07T14:39:31;19.40;42.50
20866;DHT22;10593;48.398;10.698;2023-08-07T14:41:57;19.40;42.70
20866;DHT22;10593;48.398;10.698;2023-08-07T14:44:22;19.40;42.50
20866;DHT22;10593;48.398;10.698;2023-08-07T14:46:48;19.40;42.60
20866;DHT22;10593;48.398;10.698;2023-08-07T14:49:14;19.40;42.80
20866;DHT22;10593;48.398;10.698;2023-08-07T14:51:39;19.40;43.00
20866;DHT22;10593;48.398;10.698;2023-08-07T14:54:05;19.40;43.10
20866;DHT22;10593;48.398;10.698;2023-08-07T14:56:31;19.40;43.00
20866;DHT22;10593;48.398;10.698;2023-08-07T14:58:56;19.40;43.10
20866;DHT22;10593;48.398;10.698;2023-08-07T15:01:22;19.40;43.20
20866;DHT22;10593;48.398;10.698;2023-08-07T15:03:48;19.40;42.90
20866;DHT22;10593;48.398;10.698;2023-08-07T15:06:15;19.30;42.90
20866;DHT22;10593;48.398;10.698;2023-08-07T15:08:41;19.30;43.00
20866;DHT22;10593;48.398;10.698;2023-08-07T15:11:06;19.30;43.10
20866;DHT22;10593;48.398;10.698;2023-08-07T15:13:32;19.30;43.10
20866;DHT22;10593;48.398;10.698;2023-08-07T15:15:58;19.30;43.00
20866;DHT22;10593;48.398;10.698;2023-08-07T15:18:24;19.30;43.10
20866;DHT22;10593;48.398;10.698;2023-08-07T15:20:50;19.30;43.00
20866;DHT22;10593;48.398;10.698;2023-08-07T15:23:15;19.30;43.10
20866;DHT22;10593;48.398;10.698;2023-08-07T15:25:41;19.30;43.00
20866;DHT22;10593;48.398;10.698;2023-08-07T15:28:07;19.30;43.10
20866;DHT22;10593;48.398;10.698;2023-08-07T15:30:33;19.30;43.40
20866;DHT22;10593;48.398;10.698;2023-08-07T15:32:59;19.30;43.90
20866;DHT22;10593;48.398;10.698;2023-08-07T15:35:24;19.30;44.50
20866;DHT22;10593;48.398;10.698;2023-08-07T15:37:51;19.30;44.60
20866;DHT22;10593;48.398;10.698;2023-08-07T15:40:17;19.30;44.70
20866;DHT22;10593;48.398;10.698;2023-08-07T15:42:44;19.30;45.00
20866;DHT22;10593;48.398;10.698;2023-08-07T15:45:14;19.40;45.40
20866;DHT22;10593;48.398;10.698;2023-08-07T15:47:39;19.40;45.40
20866;DHT22;10593;48.398;10.698;2023-08-07T15:50:06;19.40;45.50
20866;DHT22;10593;48.398;10.698;2023-08-07T15:52:32;19.40;45.60
20866;DHT22;10593;48.398;10.698;2023-08-07T15:55:01;19.40;45.70
20866;DHT22;10593;48.398;10.698;2023-08-07T15:57:27;19.50;45.90
20866;DHT22;10593;48.398;10.698;2023-08-07T15:59:53;19.50;46.20
20866;DHT22;10593;48.398;10.698;2023-08-07T16:02:19;19.50;46.50
20866;DHT22;10593;48.398;10.698;2023-08-07T16:04:45;19.50;46.50
20866;DHT22;10593;48.398;10.698;2023-08-07T16:07:10;19.50;46.60
20866;DHT22;10593;48.398;10.698;2023-08-07T16:09:37;19.50;46.60
20866;DHT22;10593;48.398;10.698;2023-08-07T16:12:03;19.50;46.70
20866;DHT22;10593;48.398;10.698;2023-08-07T16:14:29;19.50;46.60
20866;DHT22;10593;48.398;10.698;2023-08-07T16:16:56;19.60;46.70
20866;DHT22;10593;48.398;10.698;2023-08-07T16:19:22;19.50;46.40
20866;DHT22;10593;48.398;10.698;2023-08-07T16:21:48;19.50;46.20
20866;DHT22;10593;48.398;10.698;2023-08-07T16:24:14;19.60;46.40
20866;DHT22;10593;48.398;10.698;2023-08-07T16:26:39;19.60;46.40
20866;DHT22;10593;48.398;10.698;2023-08-07T16:29:05;19.60;46.30
20866;DHT22;10593;48.398;10.698;2023-08-07T16:31:31;19.60;46.20
20866;DHT22;10593;48.398;10.698;2023-08-07T16:33:56;19.60;46.50
20866;DHT22;10593;48.398;10.698;2023-08-07T16:36:22;19.60;46.30
20866;DHT22;10593;48.398;10.698;2023-08-07T16:38:48;19.60;46.20
20866;DHT22;10593;48.398;10.698;2023-08-07T16:41:14;19.60;46.50
20866;DHT22;10593;48.398;10.698;2023-08-07T16:43:41;19.60;46.60
20866;DHT22;10593;48.398;10.698;2023-08-07T16:46:07;19.60;46.20
20866;DHT22;10593;48.398;10.698;2023-08-07T16:48:36;19.60;46.20
20866;DHT22;10593;48.398;10.698;2023-08-07T16:51:02;19.70;46.30